MRPVMRLM

Guest
Details From MRPV - TOBIAS BOLANOS INTL
To MRLM - LIMON INTL
Flight Number -
Tags decoded
Created
Modified
Stats Distance 72 nm / 132 km
Max Altitude 0 ft / 0 m
Waypoints 5
Social Downloads 0
Likes 0
Share VATSIM

Download

Looking for another format? Having issues loading an existing format? Contact us
Advertisement - Login to hide

Notes

Requested: MRPV G440 PARAI CLARA B690 LIO MRLM Unmatched points: G440

Route

MRPV PARAI CLARA B690 LIO MRLM

ID Type Via Altitude (ft/m) Position (lat/lon) Dist (leg/tot) Name
O MRPV APT - 0 / 0 9.95705 / -84.13980 - / 0 nm TOBIAS BOLANOS INTL
PARAI FIX - 0 / 0 9.84667 / -83.83667 19 / 19 nm
CLARA FIX - 0 / 0 9.97544 / -83.72392 10 / 29 nm
LIO NDB B690 (AWY-LO) 0 / 0 9.97667 / -83.03278 40 / 70 nm LIMON NDB
O MRLM APT - 0 / 0 9.95796 / -83.02201 1 / 71 nm LIMON INTL

Altitude Profile

Advertisement - Login to hide

MRPV

Details ICAO MRPV (SYQ)
Name TOBIAS BOLANOS INTL
Region Costa Rica
Timezone America/Costa_Rica (UTC-6.0)
Stats Elevation 3,287 ft / 1,002 m (AMSL)
Location 9.957050° -84.139800°
Runways 1
Magnetic Variation 1.963° W

METAR

MRPV 261216Z 32002KT 4500 BR SCT004 BKN010 19/19 A3005 NOSIG

Decode

TAF

TAF AMD MRPV 261200Z 2612/2712 30009KT 9999 FEW030 TX27/2618Z TN18/2711Z TEMPO 2612/2615 3000 RA BR BKN010 TEMPO 2619/2623 5000 RA BR SCT005 BKN020 TEMPO 2700/2704 00000KT BCFG SCT015

Decode

Departure Runways

ID Width Length Bearing (true/mag) Surface Threshold Overrun Markings Lighting
09 60 ft / 18 m 5,304 ft / 1,617 m 95.09° / 97.06° ASPHALT 200 ft / 61 m 0 ft / 0 m APP
27 60 ft / 18 m 5,304 ft / 1,617 m 275.10° / 277.06° ASPHALT 0 ft / 0 m 0 ft / 0 m APP

MRLM

Details ICAO MRLM (LIO)
Name Limon Int'l
Region Costa Rica
Timezone Unknown
Stats Elevation 7 ft / 2 m (AMSL)
Location 9.957960° -83.022000°
Runways 1
Magnetic Variation 2.634° W

METAR

MRLM 261200Z 26004KT 9999 FEW015 BKN090 23/22 A2984

Decode

TAF

MRLM 261100Z 2612/2712 26004KT 9999 SCT020 BKN120 TX30/2618Z TN22/2612Z TEMPO 2612/2615 DZ BKN020 BECMG 2614/2616 09008KT TEMPO 2621/2702 5000 RA BKN015 BECMG 2700/2702 24003KT

Decode

Destination Runways

ID Width Length Bearing (true/mag) Surface Threshold Overrun Markings Lighting
14 98 ft / 30 m 5,911 ft / 1,802 m 146.50° / 149.13° ASPHALT 0 ft / 0 m 0 ft / 0 m VISUAL EDGE THRESHOLD
32 98 ft / 30 m 5,911 ft / 1,802 m 326.50° / 329.14° ASPHALT 0 ft / 0 m 0 ft / 0 m VISUAL EDGE THRESHOLD

Popular Alternatives